createdAt,value
2023-03-18T00:01:04.173Z,98.60
2023-03-18T00:02:37.174Z,98.60
2023-03-18T00:04:09.620Z,98.70
2023-03-18T00:05:43.991Z,98.80
2023-03-18T00:07:16.971Z,98.80
2023-03-18T00:08:51.227Z,98.90
2023-03-18T00:10:23.422Z,98.90
2023-03-18T00:11:57.199Z,99.00
2023-03-18T00:13:30.110Z,98.90
2023-03-18T00:15:02.973Z,98.80
2023-03-18T00:16:36.784Z,98.70
2023-03-18T00:18:09.746Z,98.70
2023-03-18T00:19:42.673Z,98.70
2023-03-18T00:21:17.700Z,98.70
2023-03-18T00:22:51.670Z,98.70
2023-03-18T00:24:24.669Z,98.70
2023-03-18T00:25:58.227Z,98.80
2023-03-18T00:27:31.642Z,98.80
2023-03-18T00:29:04.431Z,99.00
2023-03-18T00:30:41.977Z,99.00
2023-03-18T00:32:14.845Z,99.10
2023-03-18T00:33:47.928Z,99.10
2023-03-18T00:35:19.828Z,99.20
2023-03-18T00:36:56.983Z,99.10
2023-03-18T00:38:30.435Z,99.10
2023-03-18T00:40:06.384Z,99.10
2023-03-18T00:41:39.333Z,99.10
2023-03-18T00:43:12.754Z,99.10
2023-03-18T00:44:46.928Z,99.20
2023-03-18T00:46:23.451Z,99.20
2023-03-18T00:47:56.575Z,99.10
2023-03-18T00:49:29.553Z,99.20
2023-03-18T00:51:02.414Z,99.30
2023-03-18T00:52:37.357Z,99.20
2023-03-18T00:54:12.939Z,99.30
2023-03-18T00:55:46.441Z,99.30
2023-03-18T00:57:19.352Z,99.40
2023-03-18T00:58:53.810Z,99.50
2023-03-18T01:00:27.174Z,99.60
2023-03-18T01:01:59.907Z,99.60
2023-03-18T01:03:33.903Z,99.60
2023-03-18T01:05:07.116Z,99.60
2023-03-18T01:06:40.635Z,99.60
2023-03-18T01:08:13.895Z,99.70
2023-03-18T01:09:46.831Z,99.70
2023-03-18T01:11:19.122Z,99.70
2023-03-18T01:12:52.262Z,99.70
2023-03-18T01:14:25.227Z,99.90
2023-03-18T01:15:58.356Z,99.90
2023-03-18T01:17:31.442Z,99.90
2023-03-18T01:19:04.359Z,99.90
2023-03-18T01:20:37.998Z,99.90
2023-03-18T01:22:11.012Z,99.90
2023-03-18T01:23:45.561Z,99.90
2023-03-18T01:25:18.496Z,99.90
2023-03-18T01:26:52.059Z,99.90
2023-03-18T01:28:25.149Z,99.90
2023-03-18T01:29:58.550Z,99.90
2023-03-18T01:31:30.361Z,99.90
2023-03-18T01:33:04.588Z,99.90
2023-03-18T01:34:37.539Z,99.90
2023-03-18T01:36:11.556Z,99.90
2023-03-18T01:37:46.662Z,99.90
2023-03-18T01:39:21.253Z,99.90
2023-03-18T01:40:54.661Z,99.90
2023-03-18T01:42:27.497Z,99.90
2023-03-18T01:44:02.093Z,99.90
2023-03-18T01:45:35.970Z,99.90
2023-03-18T01:47:10.426Z,99.90
2023-03-18T01:48:43.726Z,99.90
2023-03-18T01:50:19.649Z,99.90
2023-03-18T01:51:56.563Z,99.90
2023-03-18T01:53:34.456Z,99.90
2023-03-18T01:55:13.985Z,99.90
2023-03-18T01:56:48.522Z,99.90
2023-03-18T01:58:24.516Z,99.90
2023-03-18T01:59:58.844Z,99.90
2023-03-18T02:01:36.140Z,99.90
2023-03-18T02:03:09.219Z,99.90
2023-03-18T02:04:44.539Z,99.90
2023-03-18T02:06:17.540Z,99.90
2023-03-18T02:07:49.738Z,99.90
2023-03-18T02:09:22.668Z,99.90
2023-03-18T02:10:57.040Z,99.90
2023-03-18T02:12:37.049Z,99.90
2023-03-18T02:14:13.712Z,99.90
2023-03-18T02:15:50.565Z,99.90
2023-03-18T02:17:25.411Z,99.90
2023-03-18T02:19:02.710Z,99.90
2023-03-18T02:20:49.449Z,99.90
2023-03-18T02:22:29.263Z,99.90
2023-03-18T02:24:22.287Z,99.90
2023-03-18T02:26:03.504Z,99.90
2023-03-18T02:27:40.993Z,99.90
2023-03-18T02:29:18.275Z,99.90
2023-03-18T02:30:54.445Z,99.90
2023-03-18T02:32:28.674Z,99.90
2023-03-18T02:34:01.839Z,99.90
2023-03-18T02:35:35.941Z,99.90
2023-03-18T02:37:08.881Z,99.90
2023-03-18T02:38:42.962Z,99.90
2023-03-18T02:40:17.988Z,99.90
2023-03-18T02:41:51.312Z,99.90
2023-03-18T02:43:25.883Z,99.90
2023-03-18T02:45:00.650Z,99.90
2023-03-18T02:46:44.111Z,99.90
2023-03-18T02:48:18.594Z,99.90
2023-03-18T02:49:52.191Z,99.90
2023-03-18T02:51:25.248Z,99.90
2023-03-18T02:52:59.770Z,99.90
2023-03-18T02:54:32.898Z,99.90
2023-03-18T02:56:06.969Z,99.90
2023-03-18T02:57:39.871Z,99.90
2023-03-18T02:59:14.246Z,99.90
2023-03-18T03:00:46.233Z,99.90
2023-03-18T03:02:19.128Z,99.90
2023-03-18T03:03:52.334Z,99.90
2023-03-18T03:05:24.270Z,99.90
2023-03-18T03:06:58.067Z,99.90
2023-03-18T03:08:30.467Z,99.90
2023-03-18T03:10:03.551Z,99.90
2023-03-18T03:11:37.047Z,99.90
2023-03-18T03:13:11.558Z,99.90
2023-03-18T03:14:45.869Z,99.90
2023-03-18T03:16:19.698Z,99.90
2023-03-18T03:17:52.890Z,99.90
2023-03-18T03:19:27.865Z,99.90
2023-03-18T03:20:59.913Z,99.90
2023-03-18T03:22:33.023Z,99.90
2023-03-18T03:24:07.908Z,99.90
2023-03-18T03:25:40.151Z,99.90
2023-03-18T03:27:13.541Z,99.90
2023-03-18T03:28:46.386Z,99.90
2023-03-18T03:30:20.125Z,99.90
2023-03-18T03:31:53.003Z,99.90
2023-03-18T03:33:25.191Z,99.90
2023-03-18T03:34:58.056Z,99.90
2023-03-18T03:36:30.987Z,99.90
2023-03-18T03:38:04.172Z,99.90
2023-03-18T03:39:37.181Z,99.90
2023-03-18T03:41:10.795Z,99.90
2023-03-18T03:42:45.011Z,99.90
2023-03-18T03:44:18.158Z,99.90
2023-03-18T03:45:52.491Z,99.90
2023-03-18T03:47:24.569Z,99.90
2023-03-18T03:48:57.473Z,99.90
2023-03-18T03:50:29.580Z,99.90
2023-03-18T03:52:02.769Z,99.90
2023-03-18T03:53:36.028Z,99.90
2023-03-18T03:55:12.432Z,99.90
2023-03-18T03:56:46.109Z,99.90
2023-03-18T03:58:19.182Z,99.90
2023-03-18T03:59:52.213Z,99.90
2023-03-18T04:01:27.232Z,99.90
2023-03-18T04:02:59.653Z,99.90
2023-03-18T04:04:32.837Z,99.90
2023-03-18T04:06:06.588Z,99.90
2023-03-18T04:07:38.763Z,99.90
2023-03-18T04:09:11.746Z,99.90
2023-03-18T04:10:44.795Z,99.90
2023-03-18T04:12:18.265Z,99.90
2023-03-18T04:13:51.181Z,99.90
2023-03-18T04:15:24.265Z,99.90
2023-03-18T04:17:00.422Z,99.90
2023-03-18T04:18:33.336Z,99.90
2023-03-18T04:20:08.836Z,99.90
2023-03-18T04:21:42.631Z,99.90
2023-03-18T04:23:15.632Z,99.90
2023-03-18T04:24:47.899Z,99.90
2023-03-18T04:26:20.933Z,99.90
2023-03-18T04:27:53.922Z,99.90
2023-03-18T04:29:25.934Z,99.90
2023-03-18T04:30:59.541Z,99.90
2023-03-18T04:32:34.216Z,99.90
2023-03-18T04:34:07.768Z,99.90
2023-03-18T04:35:41.202Z,99.90
2023-03-18T04:37:14.514Z,99.90
2023-03-18T04:38:46.402Z,99.90
2023-03-18T04:40:20.020Z,99.90
2023-03-18T04:41:54.588Z,99.90
2023-03-18T04:43:27.533Z,99.90
2023-03-18T04:44:59.624Z,99.90
2023-03-18T04:46:32.825Z,99.90
2023-03-18T04:48:07.516Z,99.90
2023-03-18T04:49:40.585Z,99.90
2023-03-18T04:51:13.578Z,99.90
2023-03-18T04:52:46.534Z,99.90
2023-03-18T04:54:18.483Z,99.90
2023-03-18T04:55:51.805Z,99.90
2023-03-18T04:57:25.076Z,99.90
2023-03-18T04:58:57.974Z,99.90
2023-03-18T05:00:30.901Z,99.90
2023-03-18T05:02:04.781Z,99.90
2023-03-18T05:03:38.155Z,99.90
2023-03-18T05:05:11.569Z,99.90
2023-03-18T05:06:44.347Z,99.90
2023-03-18T05:08:17.407Z,99.90
2023-03-18T05:09:50.426Z,99.90
2023-03-18T05:11:22.500Z,99.90
2023-03-18T05:12:55.767Z,99.90
2023-03-18T05:14:28.878Z,99.90
2023-03-18T05:16:01.910Z,99.90
2023-03-18T05:17:35.294Z,99.90
2023-03-18T05:19:09.512Z,99.90
2023-03-18T05:20:42.368Z,99.90
2023-03-18T05:22:17.468Z,99.90
2023-03-18T05:23:50.400Z,99.90
2023-03-18T05:25:23.694Z,99.90
2023-03-18T05:26:57.357Z,99.90
2023-03-18T05:28:30.822Z,99.90
2023-03-18T05:30:03.585Z,99.90
2023-03-18T05:31:35.557Z,99.90
2023-03-18T05:33:08.550Z,99.90
2023-03-18T05:34:43.844Z,99.90
2023-03-18T05:36:15.826Z,99.90
2023-03-18T05:37:49.020Z,99.90
2023-03-18T05:39:21.019Z,99.90
2023-03-18T05:40:54.484Z,99.90
2023-03-18T05:42:27.219Z,99.90
2023-03-18T05:44:00.115Z,99.90
2023-03-18T05:45:33.656Z,99.90
2023-03-18T05:47:06.588Z,99.90
2023-03-18T05:48:39.497Z,99.90
2023-03-18T05:50:14.630Z,99.90
2023-03-18T05:51:48.294Z,99.90
2023-03-18T05:53:22.108Z,99.90
2023-03-18T05:54:55.609Z,99.90
2023-03-18T05:56:28.509Z,99.90
2023-03-18T05:58:00.959Z,99.90
2023-03-18T05:59:33.834Z,99.90
2023-03-18T06:01:07.313Z,99.90
2023-03-18T06:02:40.161Z,99.90
2023-03-18T06:04:13.740Z,99.90
2023-03-18T06:05:49.207Z,99.90
2023-03-18T06:07:22.700Z,99.90
2023-03-18T06:08:56.212Z,99.90
2023-03-18T06:10:29.249Z,99.90
2023-03-18T06:12:01.397Z,99.90
2023-03-18T06:13:34.334Z,99.90
2023-03-18T06:15:09.166Z,99.90
2023-03-18T06:16:43.324Z,99.90
2023-03-18T06:18:17.108Z,99.90
2023-03-18T06:19:49.040Z,99.90
2023-03-18T06:21:23.432Z,99.90
2023-03-18T06:22:56.719Z,99.90
2023-03-18T06:24:29.762Z,99.90
2023-03-18T06:26:01.777Z,99.90
2023-03-18T06:27:34.866Z,99.90
2023-03-18T06:29:08.357Z,99.90
2023-03-18T06:30:41.423Z,99.90
2023-03-18T06:32:14.561Z,99.90
2023-03-18T06:33:47.436Z,99.90
2023-03-18T06:35:20.469Z,99.90
2023-03-18T06:36:54.736Z,99.90
2023-03-18T06:38:28.812Z,99.90
2023-03-18T06:40:00.833Z,99.90
2023-03-18T06:41:33.786Z,99.90
2023-03-18T06:43:06.894Z,99.90
2023-03-18T06:44:42.877Z,99.90
2023-03-18T06:46:15.843Z,99.90
2023-03-18T06:47:49.528Z,99.90
2023-03-18T06:49:21.756Z,99.90
2023-03-18T06:50:55.123Z,99.90
2023-03-18T06:52:29.297Z,99.90
2023-03-18T06:54:02.406Z,99.90
2023-03-18T06:55:35.619Z,99.90
2023-03-18T06:57:08.475Z,99.90
2023-03-18T06:58:41.379Z,99.90
2023-03-18T07:00:14.931Z,99.90
2023-03-18T07:01:49.283Z,99.90
2023-03-18T07:03:22.222Z,99.90
2023-03-18T07:04:55.301Z,99.90
2023-03-18T07:06:28.428Z,99.90
2023-03-18T07:08:02.920Z,99.90
2023-03-18T07:09:34.820Z,99.90
2023-03-18T07:11:08.104Z,99.90
2023-03-18T07:12:41.279Z,99.90
2023-03-18T07:14:16.003Z,99.90
2023-03-18T07:15:48.909Z,99.90
2023-03-18T07:17:21.833Z,99.90
2023-03-18T07:18:54.799Z,99.90
2023-03-18T07:20:28.745Z,99.90
2023-03-18T07:22:02.308Z,99.90
2023-03-18T07:23:36.621Z,99.90
2023-03-18T07:25:10.012Z,99.90
2023-03-18T07:26:42.705Z,99.90
2023-03-18T07:28:15.577Z,99.90
2023-03-18T07:29:48.435Z,99.90
2023-03-18T07:31:21.485Z,99.90
2023-03-18T07:32:55.477Z,99.90
2023-03-18T07:34:28.721Z,99.90
2023-03-18T07:36:01.705Z,99.90
2023-03-18T07:37:35.897Z,99.90
2023-03-18T07:39:11.044Z,99.90
2023-03-18T07:40:43.969Z,99.90
2023-03-18T07:42:16.922Z,99.90
2023-03-18T07:43:49.914Z,99.90
2023-03-18T07:45:22.832Z,99.90
2023-03-18T07:46:55.965Z,99.90
2023-03-18T07:48:28.866Z,99.90
2023-03-18T07:50:02.625Z,99.90
2023-03-18T07:51:35.525Z,99.90
2023-03-18T07:53:08.565Z,99.90
2023-03-18T07:54:43.017Z,99.90
2023-03-18T07:56:16.452Z,99.90
2023-03-18T07:57:49.245Z,99.90
2023-03-18T07:59:22.146Z,99.90
2023-03-18T08:00:55.142Z,99.90
2023-03-18T08:02:28.674Z,99.90
2023-03-18T08:04:00.673Z,99.90
2023-03-18T08:05:34.029Z,99.90
2023-03-18T08:07:07.289Z,99.90
2023-03-18T08:08:41.957Z,99.90
2023-03-18T08:10:16.290Z,99.90
2023-03-18T08:11:49.251Z,99.90
2023-03-18T08:13:22.100Z,99.90
2023-03-18T08:14:55.629Z,99.90
2023-03-18T08:16:28.642Z,99.90
2023-03-18T08:18:01.736Z,99.80
2023-03-18T08:19:34.622Z,99.70
2023-03-18T08:21:07.847Z,99.60
2023-03-18T08:22:41.050Z,99.50
2023-03-18T08:24:14.040Z,99.40
2023-03-18T08:25:50.803Z,99.40
2023-03-18T08:27:23.851Z,99.30
2023-03-18T08:28:56.779Z,99.00
2023-03-18T08:30:30.494Z,99.00
2023-03-18T08:32:04.139Z,99.20
2023-03-18T08:33:37.296Z,98.80
2023-03-18T08:35:11.140Z,98.80
2023-03-18T08:36:45.123Z,98.80
2023-03-18T08:38:18.239Z,98.80
2023-03-18T08:39:51.394Z,98.70
2023-03-18T08:41:26.261Z,98.70
2023-03-18T08:42:59.394Z,98.50
2023-03-18T08:44:32.945Z,98.60
2023-03-18T08:46:06.544Z,98.50
2023-03-18T08:47:39.875Z,98.50
2023-03-18T08:49:14.010Z,98.50
2023-03-18T08:50:46.940Z,98.70
2023-03-18T08:52:20.148Z,98.60
2023-03-18T08:53:53.136Z,98.80
2023-03-18T08:55:30.806Z,98.70
2023-03-18T08:57:05.806Z,98.60
2023-03-18T08:58:38.762Z,98.60
2023-03-18T09:00:13.434Z,98.70
2023-03-18T09:01:46.428Z,98.70
2023-03-18T09:03:19.341Z,98.60
2023-03-18T09:04:53.415Z,98.50
2023-03-18T09:06:27.684Z,98.30
2023-03-18T09:08:01.025Z,98.20
2023-03-18T09:09:43.229Z,98.10
2023-03-18T09:11:18.562Z,97.90
2023-03-18T09:12:52.889Z,97.80
2023-03-18T09:14:26.453Z,97.70
2023-03-18T09:15:59.956Z,97.60
2023-03-18T09:17:50.899Z,97.50
2023-03-18T09:19:25.832Z,97.50
2023-03-18T09:20:58.798Z,97.30
2023-03-18T09:22:32.232Z,97.30
2023-03-18T09:24:07.386Z,97.20
2023-03-18T09:25:42.525Z,97.20
2023-03-18T09:27:15.655Z,97.20
2023-03-18T09:28:50.077Z,97.10
2023-03-18T09:30:23.134Z,97.20
2023-03-18T09:31:56.471Z,97.00
2023-03-18T09:33:29.358Z,96.90
2023-03-18T09:35:01.634Z,96.80
2023-03-18T09:36:34.648Z,96.80
2023-03-18T09:38:08.235Z,96.90
2023-03-18T09:39:42.037Z,96.80
2023-03-18T09:41:29.823Z,96.70
2023-03-18T09:43:21.273Z,96.50
2023-03-18T09:44:59.036Z,96.40
2023-03-18T09:46:43.215Z,96.40
2023-03-18T09:48:46.753Z,96.40
2023-03-18T09:50:29.692Z,96.30
2023-03-18T09:52:13.800Z,96.00
2023-03-18T09:53:53.345Z,95.90
2023-03-18T09:55:32.284Z,95.70
2023-03-18T09:57:07.503Z,95.50
2023-03-18T09:58:49.360Z,95.40
2023-03-18T10:00:29.043Z,95.30
2023-03-18T10:02:02.854Z,95.00
2023-03-18T10:03:40.671Z,94.90
2023-03-18T10:05:19.174Z,94.70
2023-03-18T10:06:58.118Z,94.50
2023-03-18T10:08:43.018Z,93.90
2023-03-18T10:10:25.241Z,93.70
2023-03-18T10:12:07.393Z,93.20
2023-03-18T10:13:45.472Z,93.20
2023-03-18T10:15:21.600Z,92.90
2023-03-18T10:17:06.779Z,92.90
2023-03-18T10:18:42.099Z,92.70
2023-03-18T10:20:19.121Z,92.50
2023-03-18T10:22:02.897Z,92.40
2023-03-18T10:23:41.810Z,92.50
2023-03-18T10:25:23.380Z,92.70
2023-03-18T10:27:08.649Z,92.10
2023-03-18T10:29:01.587Z,91.40
2023-03-18T10:30:47.341Z,91.70
2023-03-18T10:32:46.393Z,91.80
2023-03-18T10:34:23.925Z,91.20
2023-03-18T10:36:05.761Z,90.90
2023-03-18T10:37:52.378Z,90.90
2023-03-18T10:39:28.262Z,90.50
2023-03-18T10:41:02.428Z,90.70
2023-03-18T10:42:38.911Z,90.70
2023-03-18T10:44:19.475Z,90.80
2023-03-18T10:46:02.160Z,90.90
2023-03-18T10:47:42.756Z,90.70
2023-03-18T10:49:19.186Z,90.80
2023-03-18T10:51:02.965Z,90.60
2023-03-18T10:52:38.205Z,90.40
2023-03-18T10:54:15.797Z,90.20
2023-03-18T10:55:57.489Z,90.30
2023-03-18T10:57:32.509Z,90.10
2023-03-18T10:59:13.159Z,89.70
2023-03-18T11:00:46.032Z,89.40
2023-03-18T11:02:21.299Z,89.30
2023-03-18T11:04:01.411Z,89.30
2023-03-18T11:05:37.441Z,89.20
2023-03-18T11:07:18.956Z,88.90
2023-03-18T11:09:00.933Z,88.30
2023-03-18T11:10:39.570Z,89.00
2023-03-18T11:12:19.308Z,88.50
2023-03-18T11:13:54.005Z,88.10
2023-03-18T11:15:26.969Z,88.00
2023-03-18T11:17:01.398Z,88.60
2023-03-18T11:18:37.442Z,87.70
2023-03-18T11:20:24.525Z,87.70
2023-03-18T11:22:20.288Z,87.30
2023-03-18T11:24:13.229Z,87.50
2023-03-18T11:25:49.839Z,87.70
2023-03-18T11:27:28.989Z,87.20
2023-03-18T11:29:14.196Z,86.80
2023-03-18T11:30:49.564Z,86.50
2023-03-18T11:32:26.617Z,86.50
2023-03-18T11:34:00.651Z,86.40
2023-03-18T11:35:40.479Z,85.90
2023-03-18T11:37:14.320Z,85.60
2023-03-18T11:38:58.969Z,85.70
2023-03-18T11:40:32.789Z,85.60
2023-03-18T11:42:18.845Z,85.50
2023-03-18T11:44:00.321Z,85.30
2023-03-18T11:45:55.764Z,85.30
2023-03-18T11:47:31.198Z,84.90
2023-03-18T11:49:04.600Z,84.80
2023-03-18T11:50:54.220Z,85.00
2023-03-18T11:52:36.280Z,85.20
2023-03-18T11:54:34.734Z,85.00
2023-03-18T11:56:16.405Z,84.70
2023-03-18T11:58:16.551Z,84.20
2023-03-18T11:59:59.617Z,83.60
2023-03-18T12:01:40.880Z,83.40
2023-03-18T12:03:49.927Z,83.70
2023-03-18T12:05:44.217Z,83.60
2023-03-18T12:07:31.018Z,83.00
2023-03-18T12:09:10.841Z,83.40
2023-03-18T12:10:48.795Z,83.80
2023-03-18T12:12:38.172Z,83.70
2023-03-18T12:14:21.228Z,83.30
2023-03-18T12:16:02.073Z,83.00
2023-03-18T12:17:49.376Z,83.10
2023-03-18T12:19:45.212Z,82.70
2023-03-18T12:21:44.815Z,83.30
2023-03-18T12:23:41.227Z,82.70
2023-03-18T12:25:30.449Z,82.00
2023-03-18T12:27:12.779Z,82.00
2023-03-18T12:29:00.237Z,82.20
2023-03-18T12:30:49.297Z,81.80
2023-03-18T12:32:28.840Z,81.40
2023-03-18T12:34:03.986Z,81.10
2023-03-18T12:35:46.653Z,81.10
2023-03-18T12:37:32.201Z,80.90
2023-03-18T12:39:34.387Z,81.30
2023-03-18T12:41:14.864Z,81.00
2023-03-18T12:43:02.187Z,80.80
2023-03-18T12:44:47.754Z,80.70
2023-03-18T12:46:28.799Z,81.00
2023-03-18T12:48:05.576Z,81.20
2023-03-18T12:49:42.239Z,81.30
2023-03-18T12:51:19.499Z,81.30
2023-03-18T12:52:59.652Z,81.20
2023-03-18T12:54:37.613Z,81.10
2023-03-18T12:56:16.056Z,81.30
2023-03-18T12:57:51.770Z,81.00
2023-03-18T12:59:32.605Z,81.10
2023-03-18T13:01:11.620Z,80.90
2023-03-18T13:02:50.397Z,80.90
2023-03-18T13:04:28.813Z,80.10
2023-03-18T13:06:05.258Z,79.80
2023-03-18T13:07:44.210Z,79.80
2023-03-18T13:09:27.071Z,79.50
2023-03-18T13:11:10.558Z,79.10
2023-03-18T13:12:47.676Z,78.70
2023-03-18T13:14:27.349Z,78.40
2023-03-18T13:16:03.676Z,78.30
2023-03-18T13:17:40.075Z,78.30
2023-03-18T13:19:13.014Z,78.40
2023-03-18T13:20:47.698Z,78.40
2023-03-18T13:22:57.169Z,78.30
2023-03-18T13:24:56.637Z,78.80
2023-03-18T13:26:43.421Z,77.90
2023-03-18T13:28:35.739Z,77.70
2023-03-18T13:30:25.780Z,77.40
2023-03-18T13:32:15.783Z,77.40
2023-03-18T13:34:20.023Z,77.30
2023-03-18T13:36:17.058Z,77.50
2023-03-18T13:38:29.477Z,77.00
2023-03-18T13:40:31.058Z,76.40
2023-03-18T13:42:25.982Z,76.60
2023-03-18T13:44:01.133Z,76.60
2023-03-18T13:45:38.980Z,76.20
2023-03-18T13:47:17.927Z,76.40
2023-03-18T13:48:57.039Z,76.70
2023-03-18T13:50:35.990Z,76.90
2023-03-18T13:52:24.961Z,77.20
2023-03-18T13:54:00.910Z,76.90
2023-03-18T13:55:42.836Z,76.70
2023-03-18T13:57:33.781Z,76.80
2023-03-18T13:59:07.578Z,76.90
2023-03-18T14:00:41.904Z,77.00
2023-03-18T14:02:42.629Z,77.00
2023-03-18T14:04:31.450Z,76.80
2023-03-18T14:06:40.819Z,76.80
2023-03-18T14:08:37.052Z,76.30
2023-03-18T14:10:19.804Z,76.90
2023-03-18T14:11:54.798Z,76.70
2023-03-18T14:13:29.496Z,76.90
2023-03-18T14:15:05.849Z,76.60
2023-03-18T14:16:54.134Z,76.10
2023-03-18T14:18:28.595Z,76.30
2023-03-18T14:20:22.798Z,76.10
2023-03-18T14:22:05.712Z,76.00
2023-03-18T14:23:44.896Z,75.90
2023-03-18T14:25:26.081Z,75.40
2023-03-18T14:27:18.510Z,75.20
2023-03-18T14:28:56.874Z,74.90
2023-03-18T14:30:45.869Z,75.30
2023-03-18T14:32:39.699Z,74.60
2023-03-18T14:34:27.794Z,73.80
2023-03-18T14:36:03.449Z,73.30
2023-03-18T14:37:57.369Z,73.40
2023-03-18T14:39:33.822Z,73.30
2023-03-18T14:41:17.355Z,73.50
2023-03-18T14:42:58.317Z,72.80
2023-03-18T14:44:40.967Z,73.00
2023-03-18T14:46:18.926Z,72.70
2023-03-18T14:47:53.944Z,72.50
2023-03-18T14:49:36.636Z,72.10
2023-03-18T14:51:14.939Z,72.20
2023-03-18T14:52:55.702Z,72.70
2023-03-18T14:54:33.700Z,72.60
2023-03-18T14:56:17.421Z,72.40
2023-03-18T14:57:52.045Z,72.60
2023-03-18T14:59:26.314Z,72.90
2023-03-18T15:01:05.869Z,73.50
2023-03-18T15:02:40.529Z,73.30
2023-03-18T15:04:19.680Z,73.20
2023-03-18T15:05:58.091Z,73.20
2023-03-18T15:07:35.999Z,72.80
2023-03-18T15:09:14.745Z,72.50
2023-03-18T15:10:49.930Z,72.10
2023-03-18T15:12:30.538Z,72.10
2023-03-18T15:14:11.696Z,72.00
2023-03-18T15:15:45.499Z,72.40
2023-03-18T15:17:18.568Z,72.00
2023-03-18T15:18:54.740Z,71.90
2023-03-18T15:20:27.948Z,72.10
2023-03-18T15:22:03.467Z,72.30
2023-03-18T15:23:39.316Z,72.70
2023-03-18T15:25:18.495Z,72.50
2023-03-18T15:26:58.868Z,72.90
2023-03-18T15:28:32.181Z,73.00
2023-03-18T15:30:11.643Z,72.80
2023-03-18T15:31:46.154Z,73.10
2023-03-18T15:33:23.001Z,73.00
2023-03-18T15:34:58.035Z,73.50
2023-03-18T15:36:31.069Z,72.90
2023-03-18T15:38:16.131Z,72.80
2023-03-18T15:39:49.807Z,72.50
2023-03-18T15:41:25.520Z,72.30
2023-03-18T15:43:00.041Z,72.50
2023-03-18T15:44:36.997Z,72.70
2023-03-18T15:46:18.573Z,72.40
2023-03-18T15:47:52.114Z,73.50
2023-03-18T15:49:28.445Z,73.10
2023-03-18T15:51:03.235Z,73.10
2023-03-18T15:52:41.738Z,73.40
2023-03-18T15:54:19.357Z,74.00
2023-03-18T15:55:55.355Z,74.00
2023-03-18T15:57:34.987Z,74.40
2023-03-18T15:59:15.828Z,74.50
2023-03-18T16:00:48.982Z,74.70
2023-03-18T16:02:23.652Z,75.30
2023-03-18T16:03:56.618Z,74.80
2023-03-18T16:05:30.013Z,74.90
2023-03-18T16:07:04.328Z,75.00
2023-03-18T16:08:37.331Z,74.90
2023-03-18T16:10:11.428Z,75.20
2023-03-18T16:11:45.973Z,75.50
2023-03-18T16:13:23.427Z,75.50
2023-03-18T16:14:56.501Z,75.60
2023-03-18T16:16:31.693Z,75.80
2023-03-18T16:18:06.215Z,76.00
2023-03-18T16:19:39.185Z,76.30
2023-03-18T16:21:14.378Z,76.50
2023-03-18T16:22:47.405Z,76.50
2023-03-18T16:24:20.715Z,76.70
2023-03-18T16:25:54.494Z,76.80
2023-03-18T16:27:34.104Z,76.80
2023-03-18T16:29:17.656Z,77.00
2023-03-18T16:30:53.500Z,77.20
2023-03-18T16:32:27.312Z,77.70
2023-03-18T16:34:01.701Z,77.80
2023-03-18T16:35:35.963Z,78.20
2023-03-18T16:37:18.221Z,78.50
2023-03-18T16:38:51.202Z,78.70
2023-03-18T16:40:26.077Z,78.60
2023-03-18T16:41:59.080Z,79.00
2023-03-18T16:43:33.695Z,79.20
2023-03-18T16:45:08.215Z,79.70
2023-03-18T16:46:44.030Z,79.80
2023-03-18T16:48:19.868Z,79.80
2023-03-18T16:49:55.663Z,80.10
2023-03-18T16:51:28.576Z,80.10
2023-03-18T16:53:00.540Z,80.20
2023-03-18T16:54:34.395Z,80.50
2023-03-18T16:56:16.615Z,80.50
2023-03-18T16:57:52.447Z,80.40
2023-03-18T16:59:29.901Z,80.50
2023-03-18T17:01:04.793Z,80.40
2023-03-18T17:02:38.194Z,80.40
2023-03-18T17:04:17.563Z,80.50
2023-03-18T17:05:52.986Z,80.60
2023-03-18T17:07:26.708Z,80.80
2023-03-18T17:08:59.906Z,81.00
2023-03-18T17:10:32.753Z,81.20
2023-03-18T17:12:07.372Z,81.30
2023-03-18T17:13:40.352Z,81.50
2023-03-18T17:15:17.631Z,81.60
2023-03-18T17:16:50.743Z,81.70
2023-03-18T17:18:26.085Z,81.90
2023-03-18T17:19:59.773Z,82.10
2023-03-18T17:21:34.468Z,82.40
2023-03-18T17:23:08.362Z,82.30
2023-03-18T17:24:41.350Z,82.60
2023-03-18T17:26:15.844Z,83.00
2023-03-18T17:27:51.510Z,83.20
2023-03-18T17:29:26.630Z,83.30
2023-03-18T17:31:00.016Z,83.60
2023-03-18T17:32:34.080Z,83.60
2023-03-18T17:34:14.209Z,83.80
2023-03-18T17:35:47.307Z,83.90
2023-03-18T17:37:23.475Z,84.00
2023-03-18T17:38:58.765Z,84.20
2023-03-18T17:40:31.857Z,84.40
2023-03-18T17:42:05.972Z,84.40
2023-03-18T17:43:38.957Z,84.60
2023-03-18T17:45:24.190Z,85.30
2023-03-18T17:46:58.061Z,85.30
2023-03-18T17:48:32.394Z,85.30
2023-03-18T17:50:05.983Z,85.50
2023-03-18T17:51:39.437Z,85.50
2023-03-18T17:53:26.494Z,85.70
2023-03-18T17:54:59.330Z,85.80
2023-03-18T17:56:32.623Z,85.90
2023-03-18T17:58:06.740Z,86.00
2023-03-18T17:59:39.767Z,86.20
2023-03-18T18:01:16.252Z,86.40
2023-03-18T18:02:49.749Z,86.40
2023-03-18T18:04:24.790Z,86.30
2023-03-18T18:05:58.479Z,86.80
2023-03-18T18:07:31.455Z,86.10
2023-03-18T18:09:06.582Z,85.90
2023-03-18T18:10:39.661Z,86.10
2023-03-18T18:12:18.193Z,86.10
2023-03-18T18:13:52.187Z,86.40
2023-03-18T18:15:27.570Z,86.40
2023-03-18T18:17:07.715Z,86.60
2023-03-18T18:18:49.472Z,87.10
2023-03-18T18:20:29.781Z,87.30
2023-03-18T18:22:17.533Z,87.50
2023-03-18T18:23:54.766Z,87.50
2023-03-18T18:25:35.888Z,87.30
2023-03-18T18:27:14.565Z,87.50
2023-03-18T18:28:49.500Z,87.80
2023-03-18T18:30:43.668Z,87.90
2023-03-18T18:32:43.990Z,88.30
2023-03-18T18:34:32.439Z,88.60
2023-03-18T18:36:19.095Z,89.00
2023-03-18T18:38:15.276Z,89.20
2023-03-18T18:39:48.303Z,89.50
2023-03-18T18:41:22.637Z,89.80
2023-03-18T18:42:55.648Z,90.00
2023-03-18T18:44:47.060Z,90.20
2023-03-18T18:47:08.987Z,90.30
2023-03-18T18:48:42.330Z,90.50
2023-03-18T18:50:17.112Z,90.60
2023-03-18T18:51:50.772Z,90.70
2023-03-18T18:53:25.635Z,90.80
2023-03-18T18:54:58.594Z,90.90
2023-03-18T18:56:36.467Z,90.90
2023-03-18T18:58:16.127Z,91.00
2023-03-18T18:59:49.233Z,91.10
2023-03-18T19:01:23.184Z,91.20
2023-03-18T19:02:58.000Z,91.60
2023-03-18T19:04:30.971Z,91.40
2023-03-18T19:06:06.632Z,91.50
2023-03-18T19:07:40.718Z,91.50
2023-03-18T19:09:19.064Z,91.50
2023-03-18T19:10:53.699Z,91.70
2023-03-18T19:12:28.535Z,91.60
2023-03-18T19:14:18.618Z,91.70
2023-03-18T19:15:53.320Z,91.70
2023-03-18T19:17:26.266Z,91.80
2023-03-18T19:18:59.847Z,91.80
2023-03-18T19:20:33.393Z,91.80
2023-03-18T19:22:07.474Z,91.80
2023-03-18T19:23:40.542Z,91.90
2023-03-18T19:25:13.883Z,91.90
2023-03-18T19:26:46.615Z,92.00
2023-03-18T19:28:31.464Z,92.20
2023-03-18T19:30:17.223Z,92.20
2023-03-18T19:31:50.447Z,92.20
2023-03-18T19:33:23.300Z,92.30
2023-03-18T19:34:56.326Z,92.40
2023-03-18T19:36:31.564Z,92.50
2023-03-18T19:38:04.692Z,92.60
2023-03-18T19:39:38.171Z,92.60
2023-03-18T19:41:11.636Z,92.60
2023-03-18T19:42:44.661Z,92.70
2023-03-18T19:44:21.044Z,92.70
2023-03-18T19:45:54.251Z,92.90
2023-03-18T19:47:29.860Z,92.80
2023-03-18T19:49:33.731Z,92.80
2023-03-18T19:51:08.261Z,93.00
2023-03-18T19:52:41.543Z,92.90
2023-03-18T19:54:22.415Z,93.00
2023-03-18T19:55:55.724Z,93.10
2023-03-18T19:57:31.728Z,93.30
2023-03-18T19:59:06.623Z,93.40
2023-03-18T20:00:41.315Z,93.50
2023-03-18T20:02:23.211Z,93.60
2023-03-18T20:03:58.190Z,93.80
2023-03-18T20:05:31.740Z,93.90
2023-03-18T20:07:06.382Z,94.20
2023-03-18T20:08:39.285Z,94.00
2023-03-18T20:10:13.810Z,94.10
2023-03-18T20:11:47.719Z,94.10
2023-03-18T20:13:20.902Z,94.30
2023-03-18T20:14:53.736Z,94.40
2023-03-18T20:16:29.531Z,94.40
2023-03-18T20:18:02.506Z,94.50
2023-03-18T20:19:34.459Z,94.50
2023-03-18T20:21:10.700Z,94.70
2023-03-18T20:22:48.084Z,94.70
2023-03-18T20:24:28.580Z,94.90
2023-03-18T20:26:01.947Z,95.00
2023-03-18T20:27:35.076Z,95.20
2023-03-18T20:29:17.460Z,95.40
2023-03-18T20:30:52.655Z,95.60
2023-03-18T20:32:26.092Z,95.80
2023-03-18T20:33:58.827Z,95.90
2023-03-18T20:35:34.001Z,96.00
2023-03-18T20:37:08.317Z,96.00
2023-03-18T20:38:42.150Z,96.10
2023-03-18T20:40:21.679Z,96.30
2023-03-18T20:41:54.665Z,96.40
2023-03-18T20:43:28.826Z,96.50
2023-03-18T20:45:01.812Z,96.50
2023-03-18T20:46:34.797Z,96.60